Weather at Stevens Airport

Public forecast

Using degrees Fahrenheit for public forecast. Weather courtesy of forecast.io.

Closest aviation weather report (METAR) to Stevens Airport

Closest report is Kenai Municipal Airport, 6.0 nm (11.1 km) SSE. Retrieved 2021/06/23 02:53 UTC (24 minutes ago):

PAEN 230253Z 22007KT 10SM SCT075 14/08 A2987

Closest aviation forecast (TAF) to Stevens Airport

Closest forecast is Kenai Municipal Airport, 6.0 nm (11.1 km) SSE. Retrieved 2021-06-23 00:36 UTC (3 hours ago):

TAF PAEN 222335Z 2300/2324 VRB06KT P6SM SCT070 BKN120 FM231600 03011KT P6SM SCT120 BKN200